createdAt,value
2018-06-14T00:01:59.519Z,57.00
2018-06-14T00:04:27.603Z,57.30
2018-06-14T00:06:55.679Z,57.50
2018-06-14T00:09:23.775Z,57.80
2018-06-14T00:11:51.861Z,58.10
2018-06-14T00:14:19.961Z,58.40
2018-06-14T00:16:48.036Z,58.50
2018-06-14T00:19:16.116Z,58.30
2018-06-14T00:21:44.224Z,58.00
2018-06-14T00:24:12.304Z,57.90
2018-06-14T00:26:40.391Z,57.40
2018-06-14T00:29:08.458Z,57.50
2018-06-14T00:31:36.519Z,57.80
2018-06-14T00:34:04.615Z,57.80
2018-06-14T00:36:32.678Z,57.70
2018-06-14T00:39:00.739Z,57.60
2018-06-14T00:41:28.797Z,58.00
2018-06-14T00:43:56.898Z,57.20
2018-06-14T00:46:25.231Z,57.20
2018-06-14T00:48:53.314Z,57.10
2018-06-14T00:51:21.463Z,56.70
2018-06-14T00:53:49.514Z,56.40
2018-06-14T00:56:17.569Z,56.50
2018-06-14T00:58:45.687Z,56.60
2018-06-14T01:01:13.765Z,56.60
2018-06-14T01:03:41.851Z,57.00
2018-06-14T01:08:37.858Z,56.10
2018-06-14T01:11:06.022Z,56.10
2018-06-14T01:13:34.109Z,56.10
2018-06-14T01:16:02.332Z,55.90
2018-06-14T01:18:30.422Z,56.10
2018-06-14T01:20:58.489Z,55.90
2018-06-14T01:23:26.590Z,56.20
2018-06-14T01:25:54.683Z,56.10
2018-06-14T01:28:22.768Z,55.80
2018-06-14T01:33:18.685Z,56.10
2018-06-14T01:35:46.797Z,56.00
2018-06-14T01:38:26.750Z,56.20
2018-06-14T01:40:55.067Z,56.40
2018-06-14T01:43:23.396Z,56.80
2018-06-14T01:45:51.470Z,56.80
2018-06-14T01:50:47.861Z,56.60
2018-06-14T01:53:16.389Z,56.70
2018-06-14T01:55:44.492Z,56.50
2018-06-14T02:00:40.485Z,56.30
2018-06-14T02:03:08.536Z,56.30
2018-06-14T02:05:36.665Z,56.20
2018-06-14T02:08:04.744Z,56.10
2018-06-14T02:13:00.890Z,56.80
2018-06-14T02:15:29.483Z,57.40
2018-06-14T02:17:58.275Z,57.60
2018-06-14T02:20:26.381Z,57.50
2018-06-14T02:22:54.491Z,57.70
2018-06-14T02:25:22.671Z,57.70
2018-06-14T02:27:50.981Z,57.60
2018-06-14T02:30:19.051Z,57.50
2018-06-14T02:32:47.172Z,57.80
2018-06-14T02:35:15.227Z,57.90
2018-06-14T02:37:43.299Z,57.50
2018-06-14T02:40:12.757Z,57.60
2018-06-14T02:42:41.671Z,57.80
2018-06-14T02:45:09.833Z,57.90
2018-06-14T02:47:37.942Z,57.30
2018-06-14T02:50:06.474Z,56.90
2018-06-14T02:52:35.022Z,56.90
2018-06-14T02:55:03.100Z,57.00
2018-06-14T02:57:31.338Z,56.70
2018-06-14T03:02:27.597Z,56.60
2018-06-14T03:04:55.676Z,56.80
2018-06-14T03:07:29.150Z,56.80
2018-06-14T03:09:57.199Z,56.80
2018-06-14T03:12:25.288Z,57.10
2018-06-14T03:14:53.340Z,57.30
2018-06-14T03:17:22.043Z,57.10
2018-06-14T03:19:51.669Z,57.00
2018-06-14T03:24:48.416Z,57.30
2018-06-14T03:27:16.714Z,56.90
2018-06-14T03:29:44.799Z,57.10
2018-06-14T03:32:12.948Z,57.10
2018-06-14T03:34:41.061Z,57.00
2018-06-14T03:37:10.026Z,56.60
2018-06-14T03:39:38.204Z,56.40
2018-06-14T03:42:08.415Z,56.60
2018-06-14T03:44:37.821Z,56.40
2018-06-14T03:47:07.309Z,56.50
2018-06-14T03:49:36.234Z,56.60
2018-06-14T03:52:04.313Z,56.80
2018-06-14T03:54:32.672Z,57.20
2018-06-14T03:57:00.765Z,57.50
2018-06-14T03:59:28.904Z,57.40
2018-06-14T04:01:56.970Z,57.50
2018-06-14T04:04:25.071Z,57.20
2018-06-14T04:06:53.106Z,57.30
2018-06-14T04:09:21.232Z,57.40
2018-06-14T04:11:49.665Z,57.60
2018-06-14T04:14:17.731Z,57.40
2018-06-14T04:16:45.806Z,57.50
2018-06-14T04:19:14.009Z,58.10
2018-06-14T04:21:42.067Z,57.60
2018-06-14T04:24:10.253Z,58.30
2018-06-14T04:26:38.387Z,57.40
2018-06-14T04:29:06.706Z,57.40
2018-06-14T04:31:34.800Z,57.30
2018-06-14T04:34:03.153Z,57.30
2018-06-14T04:36:31.211Z,57.50
2018-06-14T04:38:59.283Z,57.60
2018-06-14T04:41:27.350Z,57.50
2018-06-14T04:43:55.619Z,57.90
2018-06-14T04:46:23.737Z,57.90
2018-06-14T04:48:51.946Z,57.80
2018-06-14T04:51:20.035Z,57.80
2018-06-14T04:53:48.112Z,57.80
2018-06-14T04:56:16.439Z,58.00
2018-06-14T04:58:44.514Z,57.80
2018-06-14T05:01:12.630Z,57.50
2018-06-14T05:03:40.720Z,57.50
2018-06-14T05:06:08.879Z,57.50
2018-06-14T05:08:36.947Z,57.00
2018-06-14T05:11:05.043Z,56.90
2018-06-14T05:13:33.116Z,57.00
2018-06-14T05:16:01.219Z,57.10
2018-06-14T05:18:29.324Z,57.00
2018-06-14T05:20:57.431Z,56.80
2018-06-14T05:23:25.498Z,56.80
2018-06-14T05:25:53.597Z,56.60
2018-06-14T05:28:21.672Z,56.60
2018-06-14T05:30:49.739Z,56.70
2018-06-14T05:33:17.806Z,56.30
2018-06-14T05:35:45.883Z,56.30
2018-06-14T05:38:13.981Z,55.70
2018-06-14T05:40:42.024Z,55.70
2018-06-14T05:43:10.164Z,56.40
2018-06-14T05:45:38.259Z,56.90
2018-06-14T05:48:06.435Z,56.90
2018-06-14T05:50:34.552Z,56.80
2018-06-14T05:53:09.412Z,56.40
2018-06-14T05:55:37.535Z,55.90
2018-06-14T05:58:05.580Z,55.60
2018-06-14T06:00:33.680Z,54.50
2018-06-14T06:03:01.753Z,54.90
2018-06-14T06:05:29.835Z,54.80
2018-06-14T06:07:57.934Z,54.10
2018-06-14T06:12:54.274Z,53.40
2018-06-14T06:15:22.326Z,53.10
2018-06-14T06:17:50.405Z,53.30
2018-06-14T06:20:18.927Z,52.70
2018-06-14T06:25:15.590Z,51.60
2018-06-14T06:27:43.697Z,52.10
2018-06-14T06:30:11.752Z,52.60
2018-06-14T06:32:39.831Z,52.00
2018-06-14T06:35:07.866Z,51.30
2018-06-14T06:37:36.037Z,50.90
2018-06-14T06:40:04.154Z,50.30
2018-06-14T06:42:32.544Z,49.70
2018-06-14T06:45:00.618Z,50.00
2018-06-14T06:47:28.674Z,49.50
2018-06-14T06:49:56.850Z,48.30
2018-06-14T06:52:24.970Z,48.60
2018-06-14T06:54:53.065Z,47.80
2018-06-14T06:57:22.109Z,46.10
2018-06-14T06:59:50.156Z,46.50
2018-06-14T07:02:18.237Z,46.20
2018-06-14T07:04:46.306Z,46.00
2018-06-14T07:07:14.370Z,47.40
2018-06-14T07:09:42.431Z,47.30
2018-06-14T07:14:38.383Z,48.00
2018-06-14T07:17:06.442Z,47.70
2018-06-14T07:19:34.504Z,47.30
2018-06-14T07:22:02.627Z,47.00
2018-06-14T07:24:30.683Z,46.60
2018-06-14T07:26:58.839Z,46.00
2018-06-14T07:29:26.956Z,45.30
2018-06-14T07:31:55.027Z,44.10
2018-06-14T07:34:23.096Z,43.60
2018-06-14T07:36:51.218Z,44.30
2018-06-14T07:39:19.317Z,44.80
2018-06-14T07:41:47.411Z,45.00
2018-06-14T07:44:15.519Z,44.60
2018-06-14T07:46:43.588Z,45.00
2018-06-14T07:49:11.701Z,45.60
2018-06-14T07:51:39.770Z,45.80
2018-06-14T07:56:35.822Z,46.60
2018-06-14T08:01:31.904Z,46.20
2018-06-14T08:03:59.986Z,45.90
2018-06-14T08:06:28.156Z,45.20
2018-06-14T08:08:56.225Z,44.40
2018-06-14T08:11:24.306Z,42.60
2018-06-14T08:13:52.452Z,41.80
2018-06-14T08:16:20.545Z,40.60
2018-06-14T08:18:48.647Z,40.10
2018-06-14T08:21:16.719Z,40.80
2018-06-14T08:23:44.788Z,41.20
2018-06-14T08:26:12.870Z,42.60
2018-06-14T08:28:40.989Z,42.80
2018-06-14T08:31:09.050Z,43.00
2018-06-14T08:33:37.143Z,43.10
2018-06-14T08:36:05.308Z,43.40
2018-06-14T08:38:33.395Z,42.90
2018-06-14T08:41:01.471Z,41.90
2018-06-14T08:43:29.578Z,42.30
2018-06-14T08:45:57.678Z,42.00
2018-06-14T08:48:25.779Z,41.90
2018-06-14T08:50:53.879Z,41.80
2018-06-14T08:53:21.952Z,40.90
2018-06-14T08:55:50.014Z,39.80
2018-06-14T08:58:18.084Z,38.80
2018-06-14T09:00:46.179Z,38.30
2018-06-14T09:03:14.250Z,38.30
2018-06-14T09:05:42.376Z,37.80
2018-06-14T09:08:10.493Z,38.20
2018-06-14T09:10:38.603Z,38.40
2018-06-14T09:13:06.695Z,38.10
2018-06-14T09:15:34.838Z,38.60
2018-06-14T09:18:02.899Z,38.50
2018-06-14T09:20:30.976Z,39.00
2018-06-14T09:22:59.060Z,38.30
2018-06-14T09:25:27.127Z,38.30
2018-06-14T09:27:55.213Z,37.60
2018-06-14T09:30:23.285Z,37.70
2018-06-14T09:32:51.355Z,38.30
2018-06-14T09:35:19.410Z,37.10
2018-06-14T09:37:47.507Z,37.20
2018-06-14T09:40:15.558Z,35.90
2018-06-14T09:42:43.679Z,36.30
2018-06-14T09:45:11.752Z,36.40
2018-06-14T09:47:39.882Z,36.60
2018-06-14T09:50:07.935Z,36.10
2018-06-14T09:52:36.032Z,36.80
2018-06-14T09:55:04.105Z,36.30
2018-06-14T09:57:32.204Z,36.90
2018-06-14T10:00:00.298Z,38.40
2018-06-14T10:02:28.456Z,37.00
2018-06-14T10:04:56.619Z,36.70
2018-06-14T10:07:24.986Z,36.00
2018-06-14T10:09:53.071Z,35.90
2018-06-14T10:12:21.191Z,36.00
2018-06-14T10:14:49.249Z,35.90
2018-06-14T10:17:17.351Z,35.50
2018-06-14T10:19:45.425Z,36.00
2018-06-14T10:22:13.522Z,36.00
2018-06-14T10:24:41.628Z,35.20
2018-06-14T10:27:09.725Z,35.60
2018-06-14T10:29:37.807Z,34.70
2018-06-14T10:32:05.988Z,35.90
2018-06-14T10:34:34.160Z,36.10
2018-06-14T10:37:02.275Z,35.90
2018-06-14T10:39:30.423Z,35.50
2018-06-14T10:41:58.523Z,35.80
2018-06-14T10:44:26.836Z,35.50
2018-06-14T10:46:55.042Z,36.20
2018-06-14T10:49:23.204Z,35.60
2018-06-14T10:51:51.294Z,35.90
2018-06-14T10:54:19.433Z,35.80
2018-06-14T10:56:47.695Z,36.50
2018-06-14T10:59:15.840Z,36.20
2018-06-14T11:01:43.954Z,35.80
2018-06-14T11:09:14.777Z,34.00
2018-06-14T11:11:42.853Z,33.70
2018-06-14T11:14:10.918Z,34.50
2018-06-14T11:16:39.017Z,34.80
2018-06-14T11:19:07.083Z,34.00
2018-06-14T11:21:35.184Z,34.40
2018-06-14T11:24:03.475Z,34.60
2018-06-14T11:26:31.543Z,33.90
2018-06-14T11:28:59.599Z,33.50
2018-06-14T11:31:27.656Z,34.00
2018-06-14T11:33:55.919Z,34.10
2018-06-14T11:36:23.970Z,34.30
2018-06-14T11:38:52.059Z,34.50
2018-06-14T11:41:20.152Z,34.00
2018-06-14T11:43:48.244Z,33.20
2018-06-14T11:46:16.418Z,34.60
2018-06-14T11:48:44.519Z,35.80
2018-06-14T11:51:12.590Z,34.90
2018-06-14T11:53:40.666Z,34.70
2018-06-14T11:56:08.751Z,34.70
2018-06-14T11:58:36.847Z,35.50
2018-06-14T12:01:04.944Z,35.00
2018-06-14T12:03:32.994Z,34.80
2018-06-14T12:06:01.084Z,35.30
2018-06-14T12:08:29.189Z,34.40
2018-06-14T12:10:57.328Z,34.40
2018-06-14T12:13:25.398Z,35.20
2018-06-14T12:15:53.460Z,34.10
2018-06-14T12:18:21.521Z,34.50
2018-06-14T12:20:49.615Z,34.30
2018-06-14T12:23:17.682Z,34.60
2018-06-14T12:25:45.753Z,33.50
2018-06-14T12:28:13.912Z,32.60
2018-06-14T12:30:42.001Z,32.30
2018-06-14T12:33:10.066Z,32.40
2018-06-14T12:35:38.150Z,32.30
2018-06-14T12:38:06.223Z,32.50
2018-06-14T12:40:34.279Z,32.30
2018-06-14T12:43:02.379Z,31.30
2018-06-14T12:45:30.449Z,31.10
2018-06-14T12:47:58.478Z,31.20
2018-06-14T12:50:26.531Z,31.50
2018-06-14T12:52:54.610Z,30.90
2018-06-14T12:55:22.703Z,31.30
2018-06-14T12:57:50.760Z,32.60
2018-06-14T13:00:18.866Z,33.20
2018-06-14T13:02:46.947Z,32.80
2018-06-14T13:05:15.016Z,33.00
2018-06-14T13:07:43.104Z,32.90
2018-06-14T13:10:11.175Z,32.70
2018-06-14T13:12:39.260Z,31.60
2018-06-14T13:15:07.335Z,31.90
2018-06-14T13:17:35.411Z,32.40
2018-06-14T13:20:03.485Z,31.90
2018-06-14T13:22:31.593Z,32.20
2018-06-14T13:24:59.656Z,31.90
2018-06-14T13:27:27.777Z,31.50
2018-06-14T13:29:55.845Z,31.30
2018-06-14T13:32:23.903Z,30.90
2018-06-14T13:34:51.948Z,32.60
2018-06-14T13:37:20.020Z,31.90
2018-06-14T13:39:48.102Z,32.00
2018-06-14T13:42:16.216Z,31.00
2018-06-14T13:44:44.323Z,31.50
2018-06-14T13:47:12.379Z,30.30
2018-06-14T13:49:40.436Z,29.50
2018-06-14T13:52:08.519Z,30.10
2018-06-14T13:54:36.577Z,30.70
2018-06-14T13:57:04.676Z,30.50
2018-06-14T13:59:32.723Z,30.20
2018-06-14T14:02:00.776Z,30.30
2018-06-14T14:07:02.212Z,30.80
2018-06-14T14:09:30.300Z,30.00
2018-06-14T14:11:58.410Z,30.50
2018-06-14T14:14:26.533Z,29.60
2018-06-14T14:16:54.626Z,30.00
2018-06-14T14:19:22.924Z,30.30
2018-06-14T14:21:51.081Z,30.00
2018-06-14T14:24:19.355Z,30.50
2018-06-14T14:26:47.779Z,30.50
2018-06-14T14:29:15.866Z,30.90
2018-06-14T14:31:43.922Z,31.20
2018-06-14T14:34:11.991Z,31.00
2018-06-14T14:36:40.033Z,31.30
2018-06-14T14:39:09.636Z,31.10
2018-06-14T14:41:37.770Z,32.10
2018-06-14T14:44:06.191Z,30.90
2018-06-14T14:49:02.238Z,30.90
2018-06-14T14:51:30.366Z,31.20
2018-06-14T14:53:58.440Z,31.80
2018-06-14T14:56:26.512Z,31.40
2018-06-14T14:58:54.573Z,32.00
2018-06-14T15:01:22.706Z,30.60
2018-06-14T15:03:50.835Z,31.20
2018-06-14T15:06:18.900Z,30.70
2018-06-14T15:08:46.992Z,31.10
2018-06-14T15:11:15.237Z,31.10
2018-06-14T15:13:43.482Z,31.30
2018-06-14T15:16:11.564Z,31.80
2018-06-14T15:18:39.687Z,31.60
2018-06-14T15:21:07.757Z,31.20
2018-06-14T15:23:35.813Z,30.80
2018-06-14T15:26:03.887Z,30.80
2018-06-14T15:28:32.024Z,31.20
2018-06-14T15:31:00.091Z,31.70
2018-06-14T15:33:28.415Z,32.20
2018-06-14T15:35:56.446Z,32.30
2018-06-14T15:40:52.512Z,31.10
2018-06-14T15:43:20.618Z,31.50
2018-06-14T15:45:48.714Z,31.60
2018-06-14T15:48:16.970Z,31.40
2018-06-14T15:50:45.830Z,31.10
2018-06-14T15:53:13.891Z,31.70
2018-06-14T15:56:10.733Z,31.30
2018-06-14T15:58:38.862Z,31.10
2018-06-14T16:01:07.295Z,31.60
2018-06-14T16:03:35.339Z,31.70
2018-06-14T16:08:31.814Z,32.20
2018-06-14T16:10:59.888Z,31.60
2018-06-14T16:13:28.000Z,31.50
2018-06-14T16:15:56.063Z,31.70
2018-06-14T16:18:24.135Z,31.90
2018-06-14T16:20:52.240Z,31.60
2018-06-14T16:23:20.348Z,31.30
2018-06-14T16:25:48.439Z,31.70
2018-06-14T16:28:16.546Z,31.40
2018-06-14T16:30:44.632Z,31.90
2018-06-14T16:35:40.875Z,32.60
2018-06-14T16:38:08.990Z,32.40
2018-06-14T16:40:37.062Z,32.80
2018-06-14T16:43:05.404Z,32.80
2018-06-14T16:45:33.597Z,32.90
2018-06-14T16:48:01.674Z,32.50
2018-06-14T16:50:29.793Z,32.80
2018-06-14T16:52:57.864Z,32.60
2018-06-14T16:55:26.223Z,32.30
2018-06-14T16:57:54.319Z,32.40
2018-06-14T17:00:22.379Z,32.80
2018-06-14T17:02:50.450Z,32.10
2018-06-14T17:05:18.651Z,32.10
2018-06-14T17:07:46.976Z,32.40
2018-06-14T17:10:15.158Z,32.40
2018-06-14T17:15:11.231Z,31.60
2018-06-14T17:17:39.333Z,32.30
2018-06-14T17:20:07.530Z,32.70
2018-06-14T17:22:35.674Z,32.50
2018-06-14T17:25:04.070Z,32.90
2018-06-14T17:27:32.157Z,32.60
2018-06-14T17:30:00.203Z,32.50
2018-06-14T17:32:28.307Z,32.20
2018-06-14T17:34:56.506Z,32.40
2018-06-14T17:37:24.674Z,32.40
2018-06-14T17:39:52.719Z,33.30
2018-06-14T17:42:20.790Z,32.70
2018-06-14T17:44:48.870Z,33.20
2018-06-14T17:47:16.956Z,33.30
2018-06-14T17:49:44.998Z,32.90
2018-06-14T17:52:13.112Z,32.50
2018-06-14T17:54:41.201Z,32.60
2018-06-14T17:57:09.313Z,33.00
2018-06-14T17:59:37.415Z,33.10
2018-06-14T18:02:05.670Z,33.40
2018-06-14T18:04:33.779Z,33.30
2018-06-14T18:07:01.856Z,33.50
2018-06-14T18:09:29.963Z,33.60
2018-06-14T18:11:58.114Z,34.10
2018-06-14T18:14:26.359Z,34.00
2018-06-14T18:16:54.538Z,34.60
2018-06-14T18:19:22.588Z,34.50
2018-06-14T18:21:50.705Z,34.80
2018-06-14T18:24:18.827Z,35.00
2018-06-14T18:26:47.175Z,35.70
2018-06-14T18:29:15.306Z,34.50
2018-06-14T18:31:43.393Z,34.70
2018-06-14T18:34:11.514Z,35.00
2018-06-14T18:36:39.600Z,35.30
2018-06-14T18:39:09.288Z,35.40
2018-06-14T18:41:37.433Z,35.60
2018-06-14T18:44:06.621Z,35.50
2018-06-14T18:46:34.759Z,35.80
2018-06-14T18:49:03.144Z,36.10
2018-06-14T18:51:31.308Z,36.10
2018-06-14T18:53:59.409Z,37.00
2018-06-14T18:56:27.590Z,36.60
2018-06-14T18:58:55.706Z,36.60
2018-06-14T19:01:24.581Z,36.90
2018-06-14T19:03:52.893Z,37.10
2018-06-14T19:06:21.590Z,37.10
2018-06-14T19:08:49.751Z,37.30
2018-06-14T19:11:17.879Z,37.30
2018-06-14T19:13:45.999Z,37.50
2018-06-14T19:16:14.162Z,37.70
2018-06-14T19:18:42.237Z,38.10
2018-06-14T19:23:38.282Z,38.70
2018-06-14T19:26:06.414Z,38.80
2018-06-14T19:28:34.516Z,39.00
2018-06-14T19:31:02.640Z,39.60
2018-06-14T19:33:30.788Z,39.70
2018-06-14T19:35:58.883Z,40.30
2018-06-14T19:38:27.032Z,40.70
2018-06-14T19:40:55.136Z,40.90
2018-06-14T19:43:23.284Z,41.50
2018-06-14T19:45:51.492Z,41.80
2018-06-14T19:48:19.633Z,42.90
2018-06-14T19:50:47.756Z,42.60
2018-06-14T19:53:15.870Z,42.70
2018-06-14T19:58:11.887Z,43.50
2018-06-14T20:00:40.000Z,43.70
2018-06-14T20:03:08.108Z,44.00
2018-06-14T20:05:36.228Z,44.50
2018-06-14T20:08:04.298Z,44.80
2018-06-14T20:13:00.402Z,45.20
2018-06-14T20:15:28.482Z,45.40
2018-06-14T20:17:56.660Z,45.90
2018-06-14T20:20:25.609Z,46.10
2018-06-14T20:22:53.714Z,46.10
2018-06-14T20:25:22.937Z,46.60
2018-06-14T20:27:51.089Z,46.80
2018-06-14T20:30:19.181Z,47.10
2018-06-14T20:32:47.261Z,47.40
2018-06-14T20:35:15.392Z,47.60
2018-06-14T20:37:43.513Z,47.70
2018-06-14T20:40:11.682Z,47.80
2018-06-14T20:42:39.782Z,48.10
2018-06-14T20:45:08.031Z,48.40
2018-06-14T20:47:36.160Z,48.80
2018-06-14T20:50:04.232Z,48.60
2018-06-14T20:52:32.404Z,48.70
2018-06-14T20:57:28.551Z,50.00
2018-06-14T20:59:56.590Z,49.60
2018-06-14T21:02:24.779Z,50.00
2018-06-14T21:07:20.831Z,50.40
2018-06-14T21:09:48.928Z,50.50
2018-06-14T21:12:17.011Z,50.80
2018-06-14T21:14:45.266Z,51.10
2018-06-14T21:17:13.385Z,50.90
2018-06-14T21:19:41.486Z,51.20
2018-06-14T21:22:09.558Z,51.50
2018-06-14T21:24:37.601Z,51.60
2018-06-14T21:27:05.724Z,51.90
2018-06-14T21:29:33.807Z,52.20
2018-06-14T21:32:01.885Z,52.00
2018-06-14T21:34:29.952Z,52.20
2018-06-14T21:36:58.050Z,52.20
2018-06-14T21:39:26.149Z,52.60
2018-06-14T21:41:54.267Z,52.80
2018-06-14T21:44:22.348Z,52.90
2018-06-14T21:46:50.459Z,53.10
2018-06-14T21:49:18.544Z,53.20
2018-06-14T21:51:46.642Z,53.60
2018-06-14T21:54:14.750Z,53.70
2018-06-14T21:56:42.958Z,54.30
2018-06-14T21:59:11.338Z,53.70
2018-06-14T22:01:39.466Z,53.60
2018-06-14T22:04:07.546Z,53.90
2018-06-14T22:06:35.625Z,54.00
2018-06-14T22:09:04.477Z,53.80
2018-06-14T22:11:32.547Z,53.60
2018-06-14T22:14:00.683Z,53.70
2018-06-14T22:16:28.749Z,53.70
2018-06-14T22:18:56.873Z,53.70
2018-06-14T22:21:24.919Z,53.70
2018-06-14T22:23:52.997Z,53.80
2018-06-14T22:26:21.053Z,53.80
2018-06-14T22:28:49.119Z,53.90
2018-06-14T22:31:17.207Z,53.90
2018-06-14T22:33:56.687Z,53.80
2018-06-14T22:36:24.791Z,53.90
2018-06-14T22:38:52.859Z,54.90
2018-06-14T22:41:20.908Z,54.10
2018-06-14T22:43:48.997Z,54.40
2018-06-14T22:46:17.071Z,54.20
2018-06-14T22:51:18.638Z,54.40
2018-06-14T22:53:47.020Z,54.60
2018-06-14T22:56:15.137Z,54.50
2018-06-14T22:58:43.393Z,54.70
2018-06-14T23:01:45.739Z,54.80
2018-06-14T23:04:15.376Z,54.90
2018-06-14T23:06:43.488Z,55.70
2018-06-14T23:10:23.306Z,55.30
2018-06-14T23:12:51.355Z,55.10
2018-06-14T23:17:48.453Z,55.60
2018-06-14T23:20:17.544Z,56.10
2018-06-14T23:22:46.829Z,56.00
2018-06-14T23:25:15.141Z,55.70
2018-06-14T23:27:43.384Z,55.50
2018-06-14T23:30:11.460Z,56.00
2018-06-14T23:35:07.440Z,56.10
2018-06-14T23:37:35.520Z,56.30
2018-06-14T23:40:03.636Z,56.20
2018-06-14T23:42:31.719Z,56.50
2018-06-14T23:44:59.810Z,57.00
2018-06-14T23:47:28.270Z,56.60
2018-06-14T23:49:56.802Z,56.60
2018-06-14T23:52:25.031Z,56.90
2018-06-14T23:54:53.130Z,56.80
2018-06-14T23:57:21.210Z,57.10
2018-06-14T23:59:49.999Z,57.30
